»·PEaware :: N3539W L22-KTOA

N3539W :: L22-KTOA

FLIGHT INFORMATION

Flight Status: Arrived
Operator: Privately registered:
United States
More flights under this callsign
Pilot: Joerg P. (23850)
Aircraft: PIPER PA-32 SARATOGA
(PA32)
More flights by this aircraft type
Origin: L22 Yucca Valley
United States
Destination: KTOA Zamperini
United States
More flights between these airports :: More routes between these airports
Route: +
File this flight plan on PilotEdge
Remarks:
Altitude:
(Current/Filed)
6,500ft
Speed:
(Current/Filed)
130kts
Departed: 24-Aug-20 06:56 PM
Arrived: 24-Aug-20 07:42 PM
Distance/Time
Traveled:
77nm/0:45
Distance/Time
To Go:
Arrived

Flight Plot

Page will automatically refresh every two minutes.

Flight plan parsing failed; only flown route is shown


Map Options




Map Legend


Flown Route
Filed Route
Departure Airport
Arrival Airport
Navaid (VOR, NDB)
Fix

Horizontal Profiles

Position Reports

Time Latitude Longitude Heading Altitude Ground
Speed
24-Aug-20 18:51 34.129986 -116.401719 334 3204ft 0kts
24-Aug-20 18:52 34.129986 -116.401719 334 3204ft 0kts
24-Aug-20 18:53 34.129986 -116.401719 334 3204ft 0kts
24-Aug-20 18:54 34.131201 -116.401092 336 3205ft 7kts
24-Aug-20 18:55 34.123904 -116.419553 242 3539ft 103kts
24-Aug-20 18:56 34.108403 -116.450241 247 4353ft 109kts
24-Aug-20 18:57 34.090112 -116.480042 216 5185ft 117kts
24-Aug-20 18:58 34.070404 -116.509615 249 5988ft 112kts
24-Aug-20 18:59 34.054782 -116.536794 227 6514ft 124kts
24-Aug-20 19:00 34.023719 -116.566998 222 6442ft 155kts
24-Aug-20 19:01 33.996015 -116.605173 246 6442ft 152kts
24-Aug-20 19:02 33.981371 -116.649911 255 6456ft 151kts
24-Aug-20 19:03 33.973606 -116.699566 270 6417ft 144kts
24-Aug-20 19:04 33.976098 -116.746852 282 6440ft 139kts
24-Aug-20 19:05 33.982226 -116.793605 277 6438ft 141kts
24-Aug-20 19:06 33.986027 -116.840649 274 6444ft 143kts
24-Aug-20 19:07 33.982364 -116.888105 255 6461ft 143kts
24-Aug-20 19:08 33.972022 -116.934115 256 6494ft 143kts
24-Aug-20 19:09 33.961948 -116.980678 258 6508ft 143kts
24-Aug-20 19:10 33.954329 -117.027843 261 6525ft 143kts
24-Aug-20 19:11 33.948855 -117.075559 258 6537ft 145kts
24-Aug-20 19:12 33.941949 -117.123399 265 6566ft 144kts
24-Aug-20 19:13 33.935498 -117.171280 258 6573ft 147kts
24-Aug-20 19:14 33.928625 -117.219871 265 6494ft 148kts
24-Aug-20 19:15 33.922466 -117.268922 266 6413ft 147kts
24-Aug-20 19:16 33.918663 -117.317343 266 6429ft 143kts
24-Aug-20 19:17 33.915728 -117.365504 255 6376ft 148kts
24-Aug-20 19:18 33.910688 -117.412904 265 6439ft 142kts
24-Aug-20 19:19 33.904641 -117.460406 263 6451ft 144kts
24-Aug-20 19:20 33.896788 -117.507698 261 6445ft 145kts
24-Aug-20 19:21 33.889062 -117.556730 262 5983ft 155kts
24-Aug-20 19:22 33.881118 -117.607582 264 5426ft 153kts
24-Aug-20 19:23 33.878229 -117.658329 272 4926ft 152kts
24-Aug-20 19:24 33.879315 -117.709273 272 4569ft 147kts
24-Aug-20 19:25 33.874490 -117.757800 261 4502ft 145kts
24-Aug-20 19:26 33.866118 -117.803660 255 4550ft 137kts
24-Aug-20 19:27 33.864397 -117.849101 270 4442ft 138kts
24-Aug-20 19:28 33.864710 -117.895128 269 4092ft 136kts
24-Aug-20 19:29 33.862676 -117.940723 265 3742ft 136kts
24-Aug-20 19:30 33.857164 -117.985707 261 3430ft 135kts
24-Aug-20 19:31 33.851247 -118.030143 260 3361ft 134kts
24-Aug-20 19:32 33.845435 -118.074439 262 3366ft 135kts
24-Aug-20 19:33 33.849537 -118.117503 313 3369ft 137kts
24-Aug-20 19:34 33.874705 -118.151004 279 3247ft 145kts
24-Aug-20 19:35 33.872182 -118.198559 255 3230ft 144kts
24-Aug-20 19:36 33.855327 -118.241389 250 2198ft 135kts
24-Aug-20 19:37 33.832514 -118.277302 226 1431ft 141kts
24-Aug-20 19:38 33.804418 -118.307847 217 809ft 113kts
24-Aug-20 19:39 33.783807 -118.312454 93 750ft 99kts
24-Aug-20 19:40 33.795171 -118.324938 290 439ft 93kts
24-Aug-20 19:41 33.805494 -118.342541 287 93ft 26kts
24-Aug-20 19:42 33.805895 -118.343875 290 94ft 8kts
24-Aug-20 19:43 33.803886 -118.344760 147 108ft 6kts
24-Aug-20 19:54 33.678259 -117.862895 118 59ft 0kts
24-Aug-20 19:55 33.678259 -117.862895 118 59ft 0kts

Navigation Log

Ident Type
Flight plan parsing failed, navigation log unavailable